Terminal Aerodrome Forecast
Issued by NWS Grand Forks, ND

Home | Current Version | Previous Version | Graphics & Text | Print | Product List | Glossary On
Versions: 1 2 3 4 5 6 7 8 9 10 11 12 13 14 15 16
000
FTUS43 KFGF 240500
TAFGFK
TAF
KGFK 240522Z 2406/2506 29010KT P6SM OVC050
     FM241000 32023G35KT 2SM -SN BLSN OVC025
     FM241300 33017KT P6SM FEW250=

USA.gov is the U.S. government's official web portal to all federal, state and local government web resources and services.